Time;durP1;ratioP1;P1;durP2;ratioP2;P2;SDS_P1;SDS_P2;PMS_P1;PMS_P2;Temp;Humidity;BMP_temperature;BMP_pressure;BME280_temperature;BME280_humidity;BME280_pressure;Samples;Min_cycle;Max_cycle;Signal;HPM_P1;HPM_P2
2022/11/05 00:09:28;;;;;;;8.38;4.22;;;;;;;;;;5057060;28;20049;-78
2022/11/05 00:17:24;;;;;;;9.68;4.10;;;;;;;;;;5057223;28;20057;-78
2022/11/05 00:19:50;;;;;;;6.25;3.88;;;;;;;;;;5056603;28;20049;-78
2022/11/05 00:25:15;;;;;;;8.25;4.75;;;;;;;;;;5056814;28;20308;-78
2022/11/05 00:27:41;;;;;;;10.25;3.97;;;;;;;;;;5032817;28;20336;-77
2022/11/05 00:30:08;;;;;;;8.88;5.32;;;;;;;;;;5039299;28;20048;-78
2022/11/05 00:32:34;;;;;;;9.18;4.35;;;;;;;;;;5056528;28;20037;-78
2022/11/05 00:35:00;;;;;;;10.45;4.38;;;;;;;;;;5039587;28;20064;-77
2022/11/05 00:37:27;;;;;;;12.70;4.85;;;;;;;;;;5056310;28;20036;-78
2022/11/05 00:39:53;;;;;;;11.27;4.38;;;;;;;;;;5057640;28;20095;-78
2022/11/05 00:45:04;;;;;;;9.57;4.53;;;;;;;;;;5057393;28;20056;-77
2022/11/05 00:50:18;;;;;;;7.57;3.78;;;;;;;;;;5057139;28;20056;-77
2022/11/05 00:52:56;;;;;;;7.95;4.15;;;;;;;;;;5057615;28;20037;-78
2022/11/05 00:55:23;;;;;;;8.80;3.45;;;;;;;;;;5055592;28;20045;-77
2022/11/05 00:57:49;;;;;;;7.85;3.53;;;;;;;;;;5034185;28;20040;-77
2022/11/05 01:00:15;;;;;;;8.20;3.92;;;;;;;;;;5057901;28;20053;-79
2022/11/05 01:02:41;;;;;;;8.43;3.67;;;;;;;;;;5057549;28;20157;-78
2022/11/05 01:05:07;;;;;;;11.18;3.50;;;;;;;;;;5058107;28;20037;-77
2022/11/05 01:07:33;;;;;;;7.53;3.67;;;;;;;;;;5056848;28;20124;-78
2022/11/05 01:09:59;;;;;;;9.07;3.65;;;;;;;;;;5037128;28;20069;-78
2022/11/05 01:12:26;;;;;;;9.70;4.47;;;;;;;;;;5055365;28;20119;-78
2022/11/05 01:14:52;;;;;;;7.20;2.78;;;;;;;;;;5057110;28;20041;-78
2022/11/05 01:17:18;;;;;;;17.00;3.92;;;;;;;;;;5056206;28;20044;-77
2022/11/05 01:19:44;;;;;;;6.32;3.58;;;;;;;;;;5056406;28;20045;-77
2022/11/05 01:22:10;;;;;;;6.35;4.05;;;;;;;;;;5056402;28;20071;-77
2022/11/05 01:24:36;;;;;;;6.65;2.78;;;;;;;;;;5057564;28;20099;-77
2022/11/05 01:27:02;;;;;;;7.93;3.25;;;;;;;;;;5031743;28;20873;-77
2022/11/05 01:29:28;;;;;;;10.38;3.08;;;;;;;;;;5049513;28;20041;-77
2022/11/05 01:31:54;;;;;;;9.57;3.78;;;;;;;;;;5036120;28;20143;-77
2022/11/05 01:34:20;;;;;;;10.27;4.10;;;;;;;;;;5051620;28;20037;-77
2022/11/05 01:36:46;;;;;;;13.25;3.70;;;;;;;;;;5049480;28;20045;-77
2022/11/05 01:39:12;;;;;;;8.88;2.90;;;;;;;;;;5049953;28;20049;-77
2022/11/05 01:41:38;;;;;;;11.05;3.45;;;;;;;;;;5032269;28;20044;-77
2022/11/05 01:44:04;;;;;;;9.90;3.28;;;;;;;;;;5036443;28;20056;-77
2022/11/05 01:46:36;;;;;;;9.30;3.70;;;;;;;;;;5056526;28;20044;-77
2022/11/05 01:49:13;;;;;;;6.60;2.90;;;;;;;;;;5055127;28;20041;-77
2022/11/05 01:51:39;;;;;;;8.82;3.50;;;;;;;;;;5056544;28;20268;-77
2022/11/05 01:54:07;;;;;;;7.07;4.00;;;;;;;;;;5054007;28;20048;-77
2022/11/05 01:56:39;;;;;;;12.40;3.60;;;;;;;;;;5055842;28;20051;-77
2022/11/05 01:59:13;;;;;;;6.05;2.70;;;;;;;;;;5055185;28;20517;-77
2022/11/05 02:01:39;;;;;;;8.68;2.80;;;;;;;;;;5036690;28;20106;-77
2022/11/05 02:04:08;;;;;;;13.35;3.17;;;;;;;;;;5057010;28;20048;-77
2022/11/05 02:06:36;;;;;;;5.25;2.45;;;;;;;;;;5031578;28;20044;-77
2022/11/05 02:09:24;;;;;;;6.68;3.13;;;;;;;;;;5030305;28;20178;-77
2022/11/05 02:11:51;;;;;;;8.88;2.47;;;;;;;;;;5056149;28;20045;-77
2022/11/05 02:14:17;;;;;;;6.68;3.50;;;;;;;;;;5055797;28;20043;-77
2022/11/05 02:16:50;;;;;;;6.28;3.28;;;;;;;;;;5036861;28;20041;-77
2022/11/05 02:19:16;;;;;;;4.22;2.67;;;;;;;;;;5055487;28;20582;-77
2022/11/05 02:21:42;;;;;;;5.32;2.38;;;;;;;;;;5055491;28;20076;-77
2022/11/05 02:24:17;;;;;;;3.78;2.38;;;;;;;;;;5055635;28;20052;-77
2022/11/05 02:26:43;;;;;;;7.30;1.75;;;;;;;;;;5055979;28;20048;-77
2022/11/05 02:29:16;;;;;;;6.85;2.72;;;;;;;;;;5038835;28;20041;-77
2022/11/05 02:31:52;;;;;;;7.75;2.90;;;;;;;;;;5055760;28;21192;-77
2022/11/05 02:34:35;;;;;;;11.30;2.60;;;;;;;;;;5031273;28;20110;-77
2022/11/05 02:37:01;;;;;;;;;;;;;;;;;;5055926;28;20590;-77
2022/11/05 02:40:02;;;;;;;8.27;2.72;;;;;;;;;;5056076;28;19932;-77
2022/11/05 02:42:34;;;;;;;10.25;2.75;;;;;;;;;;4944458;28;20100;-77
2022/11/05 02:45:06;;;;;;;9.27;2.83;;;;;;;;;;5038019;28;20579;-77
2022/11/05 02:47:32;;;;;;;8.65;4.07;;;;;;;;;;5054329;28;20052;-77
2022/11/05 02:50:19;;;;;;;8.25;3.17;;;;;;;;;;5031678;28;20049;-77
2022/11/05 02:52:58;;;;;;;6.88;2.60;;;;;;;;;;5037355;28;20041;-77
2022/11/05 02:55:35;;;;;;;9.73;3.25;;;;;;;;;;5037440;28;20037;-77
2022/11/05 02:58:02;;;;;;;7.40;2.38;;;;;;;;;;5037596;28;20045;-77
2022/11/05 03:00:40;;;;;;;14.43;3.28;;;;;;;;;;5056019;28;20049;-77
2022/11/05 03:03:27;;;;;;;7.97;2.78;;;;;;;;;;5034607;28;20111;-77
2022/11/05 03:06:11;;;;;;;6.20;2.83;;;;;;;;;;5042249;28;20056;-77
2022/11/05 03:08:56;;;;;;;5.75;2.83;;;;;;;;;;5058198;28;20076;-77
2022/11/05 03:11:24;;;;;;;5.28;2.60;;;;;;;;;;5059063;28;20046;-77
2022/11/05 03:13:55;;;;;;;7.50;2.45;;;;;;;;;;5058158;28;20068;-77
2022/11/05 03:16:26;;;;;;;5.38;2.55;;;;;;;;;;5060103;28;20075;-77
2022/11/05 03:19:16;;;;;;;7.20;2.20;;;;;;;;;;5040274;28;20128;-77
2022/11/05 03:21:48;;;;;;;13.70;3.10;;;;;;;;;;5035068;28;20053;-77
2022/11/05 03:24:14;;;;;;;3.03;1.58;;;;;;;;;;5059721;28;20054;-77
2022/11/05 03:27:02;;;;;;;6.00;2.47;;;;;;;;;;5058331;28;20131;-77
2022/11/05 03:29:29;;;;;;;10.90;2.90;;;;;;;;;;5060112;28;20052;-77
2022/11/05 03:31:57;;;;;;;4.63;2.50;;;;;;;;;;5058370;28;20045;-77
2022/11/05 03:34:26;;;;;;;6.93;2.30;;;;;;;;;;5042749;28;20550;-77
2022/11/05 03:36:54;;;;;;;7.68;3.10;;;;;;;;;;5042044;28;20041;-77
2022/11/05 03:39:23;;;;;;;5.43;2.53;;;;;;;;;;5061427;28;20041;-76
2022/11/05 03:41:51;;;;;;;5.93;3.10;;;;;;;;;;5060731;28;20041;-77
2022/11/05 03:44:21;;;;;;;6.53;2.40;;;;;;;;;;5036108;28;20051;-77
2022/11/05 03:46:48;;;;;;;5.22;3.00;;;;;;;;;;5061567;28;20041;-77
2022/11/05 03:49:27;;;;;;;7.88;2.35;;;;;;;;;;5064710;28;20479;-77
2022/11/05 03:51:57;;;;;;;6.32;2.08;;;;;;;;;;5066368;28;20068;-76
2022/11/05 03:54:24;;;;;;;19.98;3.35;;;;;;;;;;5065862;28;20099;-77
2022/11/05 03:56:52;;;;;;;7.68;4.45;;;;;;;;;;5065740;28;20069;-77
2022/11/05 03:59:19;;;;;;;6.55;2.33;;;;;;;;;;5067088;28;20124;-77
2022/11/05 04:01:47;;;;;;;8.80;2.55;;;;;;;;;;5047635;28;20645;-77
2022/11/05 04:04:13;;;;;;;9.63;3.33;;;;;;;;;;5066692;28;20108;-77
2022/11/05 04:14:56;;;;;;;6.25;2.42;;;;;;;;;;5065170;28;20041;-77
2022/11/05 04:17:22;;;;;;;9.10;2.63;;;;;;;;;;5068466;28;20037;-77
2022/11/05 04:25:20;;;;;;;5.03;3.13;;;;;;;;;;5073655;28;20905;-77
2022/11/05 04:27:46;;;;;;;9.30;2.80;;;;;;;;;;5077662;28;20043;-77
2022/11/05 04:30:19;;;;;;;4.82;2.65;;;;;;;;;;5062728;28;20021;-76
2022/11/05 04:33:04;;;;;;;5.55;2.63;;;;;;;;;;5083320;28;20049;-77
2022/11/05 04:35:50;;;;;;;7.13;2.83;;;;;;;;;;5065861;28;21210;-77
2022/11/05 04:38:17;;;;;;;9.38;2.67;;;;;;;;;;5062513;28;20133;-78
2022/11/05 04:40:44;;;;;;;6.57;2.72;;;;;;;;;;5078431;28;20049;-77
2022/11/05 04:43:15;;;;;;;11.20;3.47;;;;;;;;;;5059624;28;20064;-78
2022/11/05 04:45:42;;;;;;;5.53;2.83;;;;;;;;;;5080880;28;20037;-77
2022/11/05 04:48:08;;;;;;;8.35;4.93;;;;;;;;;;5061894;28;20121;-76
2022/11/05 04:50:35;;;;;;;6.90;3.03;;;;;;;;;;5084223;28;20053;-77
2022/11/05 04:53:01;;;;;;;6.68;2.47;;;;;;;;;;5087645;28;20025;-78
2022/11/05 04:55:27;;;;;;;7.10;2.67;;;;;;;;;;5087300;28;20041;-77
2022/11/05 04:57:54;;;;;;;9.90;3.33;;;;;;;;;;5067256;28;20107;-78
2022/11/05 05:00:21;;;;;;;7.85;3.75;;;;;;;;;;5089467;27;20033;-77
2022/11/05 05:02:47;;;;;;;7.93;4.03;;;;;;;;;;5087283;27;20038;-77
2022/11/05 05:05:14;;;;;;;6.07;2.80;;;;;;;;;;5081833;28;20038;-78
2022/11/05 05:07:40;;;;;;;12.77;2.67;;;;;;;;;;5041894;28;20053;-77
2022/11/05 05:10:07;;;;;;;8.55;4.03;;;;;;;;;;5063016;28;20048;-77
2022/11/05 05:12:33;;;;;;;13.07;2.75;;;;;;;;;;5061433;28;20045;-77
2022/11/05 05:14:59;;;;;;;9.35;3.13;;;;;;;;;;5058168;28;20041;-77
2022/11/05 05:17:26;;;;;;;10.80;3.70;;;;;;;;;;5069845;28;20036;-77
2022/11/05 05:22:40;;;;;;;7.60;3.45;;;;;;;;;;5061827;28;20065;-77
2022/11/05 05:25:06;;;;;;;6.80;3.47;;;;;;;;;;5036180;28;20107;-77
2022/11/05 05:27:32;;;;;;;11.85;3.33;;;;;;;;;;5061015;28;20116;-77
2022/11/05 05:29:59;;;;;;;9.70;4.47;;;;;;;;;;5035392;28;21135;-77
2022/11/05 05:32:25;;;;;;;10.45;3.30;;;;;;;;;;5060146;28;20041;-77
2022/11/05 05:34:52;;;;;;;9.40;3.83;;;;;;;;;;5059677;28;20041;-77
2022/11/05 05:37:19;;;;;;;12.32;3.20;;;;;;;;;;5041641;28;20095;-77
2022/11/05 05:39:46;;;;;;;9.52;3.40;;;;;;;;;;5057393;28;20049;-77
2022/11/05 05:42:13;;;;;;;7.30;2.70;;;;;;;;;;5058601;28;20045;-77
2022/11/05 05:44:39;;;;;;;8.65;4.25;;;;;;;;;;5057099;28;20130;-77
2022/11/05 05:47:05;;;;;;;10.70;3.75;;;;;;;;;;5058117;28;20048;-77
2022/11/05 05:49:31;;;;;;;7.97;3.38;;;;;;;;;;5057320;28;20044;-78
2022/11/05 05:51:57;;;;;;;9.43;3.40;;;;;;;;;;5055225;28;20045;-77
2022/11/05 05:54:23;;;;;;;12.18;3.40;;;;;;;;;;5057653;28;20124;-77
2022/11/05 05:56:49;;;;;;;9.63;3.53;;;;;;;;;;5055450;28;20095;-77
2022/11/05 05:59:15;;;;;;;9.70;3.78;;;;;;;;;;5055409;28;20036;-77
2022/11/05 06:01:41;;;;;;;9.45;4.20;;;;;;;;;;5031585;28;20095;-77
2022/11/05 06:04:09;;;;;;;7.88;2.97;;;;;;;;;;5054339;28;20111;-77
2022/11/05 06:06:35;;;;;;;6.78;3.33;;;;;;;;;;5055812;28;20051;-77
2022/11/05 06:09:01;;;;;;;7.07;2.95;;;;;;;;;;5055827;28;20040;-77
2022/11/05 06:11:27;;;;;;;9.65;2.97;;;;;;;;;;5055765;28;20120;-77
2022/11/05 06:13:53;;;;;;;11.10;4.75;;;;;;;;;;5057190;28;20049;-77
2022/11/05 06:16:19;;;;;;;7.35;3.40;;;;;;;;;;5056344;28;20041;-77
2022/11/05 06:18:45;;;;;;;7.20;3.10;;;;;;;;;;5055731;28;20041;-77
2022/11/05 06:21:13;;;;;;;12.65;4.07;;;;;;;;;;5053147;28;20095;-77
2022/11/05 06:23:40;;;;;;;7.65;3.33;;;;;;;;;;5036940;28;20052;-77
2022/11/05 06:26:07;;;;;;;7.28;4.07;;;;;;;;;;5055699;28;20166;-77
2022/11/05 06:28:33;;;;;;;8.52;4.03;;;;;;;;;;5036544;28;20124;-77
2022/11/05 06:30:59;;;;;;;9.30;3.53;;;;;;;;;;5030404;28;20045;-77
2022/11/05 06:33:26;;;;;;;8.30;3.70;;;;;;;;;;5054102;28;20044;-77
2022/11/05 06:35:53;;;;;;;7.50;3.42;;;;;;;;;;5055174;28;20041;-77
2022/11/05 06:38:19;;;;;;;10.43;3.95;;;;;;;;;;5036935;28;20041;-77
2022/11/05 06:40:45;;;;;;;10.32;3.50;;;;;;;;;;5054738;28;20527;-77
2022/11/05 06:43:11;;;;;;;8.65;3.58;;;;;;;;;;5054335;28;20037;-77
2022/11/05 06:45:37;;;;;;;6.43;4.38;;;;;;;;;;5054782;28;20111;-77
2022/11/05 06:48:04;;;;;;;8.55;3.28;;;;;;;;;;5031731;28;20045;-77
2022/11/05 06:50:30;;;;;;;8.25;2.83;;;;;;;;;;5053074;28;20064;-77
2022/11/05 06:52:56;;;;;;;6.50;3.58;;;;;;;;;;5053235;28;20674;-77
2022/11/05 06:55:23;;;;;;;11.98;5.25;;;;;;;;;;5055621;28;20056;-77
2022/11/05 06:57:49;;;;;;;8.77;3.83;;;;;;;;;;5055153;28;20051;-78
2022/11/05 07:00:16;;;;;;;13.25;4.60;;;;;;;;;;5036275;28;20459;-77
2022/11/05 07:02:42;;;;;;;10.25;4.10;;;;;;;;;;5054499;28;20053;-77
2022/11/05 07:05:11;;;;;;;6.30;3.75;;;;;;;;;;5053455;28;20578;-77
2022/11/05 07:07:38;;;;;;;12.52;5.03;;;;;;;;;;5054308;28;20496;-77
2022/11/05 07:10:05;;;;;;;10.52;4.85;;;;;;;;;;5054339;28;20120;-77
2022/11/05 07:12:31;;;;;;;12.30;3.60;;;;;;;;;;5053689;28;20509;-77
2022/11/05 07:14:57;;;;;;;8.00;3.65;;;;;;;;;;5036391;28;20037;-77
2022/11/05 07:17:23;;;;;;;6.75;4.05;;;;;;;;;;5052321;28;20064;-77
2022/11/05 07:19:50;;;;;;;12.55;3.90;;;;;;;;;;5054487;28;20117;-77
2022/11/05 07:22:16;;;;;;;9.32;3.85;;;;;;;;;;5029588;28;20041;-77
2022/11/05 07:24:42;;;;;;;12.82;5.60;;;;;;;;;;5052921;28;20041;-78
2022/11/05 07:27:08;;;;;;;18.75;5.97;;;;;;;;;;5053425;28;20586;-78
2022/11/05 07:29:34;;;;;;;12.63;5.60;;;;;;;;;;5036384;28;20111;-77
2022/11/05 07:32:00;;;;;;;8.73;4.20;;;;;;;;;;5029202;28;20052;-77
2022/11/05 07:34:26;;;;;;;19.75;4.43;;;;;;;;;;5052507;28;20044;-78
2022/11/05 07:36:52;;;;;;;13.18;4.95;;;;;;;;;;5053731;28;20041;-77
2022/11/05 07:39:18;;;;;;;7.15;3.10;;;;;;;;;;5050499;28;20507;-77
2022/11/05 07:41:45;;;;;;;8.43;3.05;;;;;;;;;;5052410;28;20501;-78
2022/11/05 07:44:13;;;;;;;9.18;3.05;;;;;;;;;;5050303;28;20510;-77
2022/11/05 07:46:39;;;;;;;5.72;3.17;;;;;;;;;;5027671;28;20493;-78
2022/11/05 07:49:05;;;;;;;6.30;3.10;;;;;;;;;;5051781;28;21637;-77
2022/11/05 07:51:31;;;;;;;7.25;3.92;;;;;;;;;;5057668;28;20045;-77
2022/11/05 07:53:57;;;;;;;16.27;8.15;;;;;;;;;;5054606;28;20037;-77
2022/11/05 07:56:23;;;;;;;19.45;10.02;;;;;;;;;;5056874;28;20833;-77
2022/11/05 07:58:49;;;;;;;12.68;6.45;;;;;;;;;;5039329;28;20485;-77
2022/11/05 08:01:15;;;;;;;13.18;6.40;;;;;;;;;;5055562;28;20045;-77
2022/11/05 08:03:42;;;;;;;7.63;4.25;;;;;;;;;;5036675;28;20040;-77
2022/11/05 08:06:08;;;;;;;8.10;4.40;;;;;;;;;;5056938;28;20045;-77
2022/11/05 08:08:34;;;;;;;11.80;4.40;;;;;;;;;;5053080;28;20749;-78
2022/11/05 08:11:08;;;;;;;7.47;3.63;;;;;;;;;;5057159;28;20052;-78
2022/11/05 08:13:35;;;;;;;17.55;4.07;;;;;;;;;;5031486;28;20037;-78
2022/11/05 08:16:01;;;;;;;7.15;3.72;;;;;;;;;;5039777;28;20041;-77
2022/11/05 08:18:31;;;;;;;11.10;4.22;;;;;;;;;;5032050;28;20037;-77
2022/11/05 08:21:01;;;;;;;8.90;5.00;;;;;;;;;;5056974;28;20048;-77
2022/11/05 08:23:28;;;;;;;11.73;4.85;;;;;;;;;;5056622;28;20557;-77
2022/11/05 08:25:55;;;;;;;12.73;4.95;;;;;;;;;;5036889;28;20044;-78
2022/11/05 08:28:21;;;;;;;15.30;5.22;;;;;;;;;;5057656;28;20502;-77
2022/11/05 08:30:48;;;;;;;12.50;5.32;;;;;;;;;;5060030;28;20076;-76
2022/11/05 08:33:15;;;;;;;7.60;3.85;;;;;;;;;;5061183;28;20151;-76
2022/11/05 08:35:42;;;;;;;11.82;5.03;;;;;;;;;;5060492;28;20417;-77
2022/11/05 08:38:12;;;;;;;9.85;5.80;;;;;;;;;;5056936;28;20667;-76
2022/11/05 08:40:39;;;;;;;7.05;4.72;;;;;;;;;;5041534;28;20685;-77
2022/11/05 08:43:06;;;;;;;11.55;4.15;;;;;;;;;;5058517;28;20597;-77
2022/11/05 08:45:33;;;;;;;9.52;3.58;;;;;;;;;;5035150;28;20040;-78
2022/11/05 08:47:59;;;;;;;7.85;3.65;;;;;;;;;;5059689;28;20049;-77
2022/11/05 08:50:25;;;;;;;9.38;4.00;;;;;;;;;;5059994;28;20102;-77
2022/11/05 08:52:51;;;;;;;18.27;8.48;;;;;;;;;;5058970;28;20510;-77
2022/11/05 08:55:17;;;;;;;13.25;7.15;;;;;;;;;;5058105;28;21247;-76
2022/11/05 08:57:46;;;;;;;11.80;5.32;;;;;;;;;;5041344;28;20041;-76
2022/11/05 09:00:13;;;;;;;14.57;3.80;;;;;;;;;;5059040;28;20041;-77
2022/11/05 09:02:40;;;;;;;14.77;5.47;;;;;;;;;;5037258;28;20056;-77
2022/11/05 09:05:06;;;;;;;7.80;3.80;;;;;;;;;;5034005;28;20119;-77
2022/11/05 09:07:32;;;;;;;8.10;3.30;;;;;;;;;;5058651;28;20044;-77
2022/11/05 09:09:58;;;;;;;7.05;3.10;;;;;;;;;;5057555;28;20045;-77
2022/11/05 09:12:24;;;;;;;6.93;3.53;;;;;;;;;;5033686;28;20119;-77
2022/11/05 09:14:50;;;;;;;8.70;4.13;;;;;;;;;;5057732;28;20808;-77
2022/11/05 09:17:20;;;;;;;15.90;4.68;;;;;;;;;;5041335;28;20156;-77
2022/11/05 09:19:48;;;;;;;12.38;4.75;;;;;;;;;;5060172;28;20119;-77
2022/11/05 09:22:15;;;;;;;5.63;3.00;;;;;;;;;;5040991;28;20049;-77
2022/11/05 09:24:42;;;;;;;16.52;4.53;;;;;;;;;;5040623;28;20095;-77
2022/11/05 09:27:13;;;;;;;11.18;4.93;;;;;;;;;;5058597;28;20049;-77
2022/11/05 09:29:39;;;;;;;8.88;4.13;;;;;;;;;;5040868;28;20029;-77
2022/11/05 09:32:06;;;;;;;8.52;4.22;;;;;;;;;;5059300;28;20088;-77
2022/11/05 09:34:38;;;;;;;9.52;4.55;;;;;;;;;;5059667;28;20079;-77
2022/11/05 09:37:04;;;;;;;6.90;3.60;;;;;;;;;;5041406;28;20056;-77
2022/11/05 09:39:30;;;;;;;12.65;4.97;;;;;;;;;;5057962;28;20041;-77
2022/11/05 09:42:02;;;;;;;9.07;4.47;;;;;;;;;;5035068;28;20032;-77
2022/11/05 09:44:28;;;;;;;;;;;;;;;;;;5039953;28;20129;-77
2022/11/05 09:46:56;;;;;;;5.47;3.05;;;;;;;;;;5033893;28;20317;-77
2022/11/05 09:49:30;;;;;;;8.57;4.80;;;;;;;;;;5056389;28;20049;-77
2022/11/05 09:52:00;;;;;;;7.20;3.97;;;;;;;;;;5041856;28;20035;-77
2022/11/05 09:54:30;;;;;;;8.00;4.32;;;;;;;;;;5060514;28;20168;-77
2022/11/05 09:56:56;;;;;;;6.45;4.03;;;;;;;;;;5058364;28;20477;-77
2022/11/05 09:59:28;;;;;;;10.57;3.40;;;;;;;;;;5057262;28;20051;-76
2022/11/05 10:02:10;;;;;;;13.80;3.72;;;;;;;;;;5057193;28;20064;-76
2022/11/05 10:04:38;;;;;;;9.18;4.03;;;;;;;;;;5058752;28;20041;-77
2022/11/05 10:07:05;;;;;;;9.52;3.63;;;;;;;;;;5036863;28;20073;-78
2022/11/05 10:09:42;;;;;;;11.52;4.90;;;;;;;;;;5053521;28;20091;-78
2022/11/05 10:12:14;;;;;;;9.77;5.20;;;;;;;;;;5034371;28;20131;-79
2022/11/05 10:14:40;;;;;;;;;;;;;;;;;;5056068;28;20037;-79
2022/11/05 10:17:24;;;;;;;8.45;4.20;;;;;;;;;;5031355;28;19924;-79
2022/11/05 10:19:54;;;;;;;9.07;4.47;;;;;;;;;;5036033;28;20037;-80
2022/11/05 10:22:20;;;;;;;8.23;4.80;;;;;;;;;;5029190;28;20037;-78
2022/11/05 10:24:47;;;;;;;9.55;4.28;;;;;;;;;;5055831;28;20485;-79
2022/11/05 10:27:19;;;;;;;7.47;3.42;;;;;;;;;;5054548;28;20661;-78
2022/11/05 10:29:46;;;;;;;6.78;3.70;;;;;;;;;;5037555;28;20055;-78
2022/11/05 10:32:17;;;;;;;10.10;4.50;;;;;;;;;;5054135;28;20067;-78
2022/11/05 10:34:46;;;;;;;11.68;4.25;;;;;;;;;;5053985;28;20124;-78
2022/11/05 10:37:12;;;;;;;10.73;4.03;;;;;;;;;;5055076;28;21330;-78
2022/11/05 10:39:38;;;;;;;8.57;4.07;;;;;;;;;;5054529;28;20139;-78
2022/11/05 10:42:07;;;;;;;11.07;4.28;;;;;;;;;;5053050;28;20124;-78
2022/11/05 10:44:47;;;;;;;6.90;3.90;;;;;;;;;;5035876;28;20866;-79
2022/11/05 10:47:13;;;;;;;7.65;4.00;;;;;;;;;;5054796;28;20063;-78
2022/11/05 10:49:43;;;;;;;6.25;3.72;;;;;;;;;;5055602;28;20056;-79
2022/11/05 10:52:18;;;;;;;8.50;3.85;;;;;;;;;;5054601;28;20041;-79
2022/11/05 10:54:44;;;;;;;9.52;4.22;;;;;;;;;;5054063;28;20045;-79
2022/11/05 10:57:30;;;;;;;6.47;3.95;;;;;;;;;;5054648;28;20041;-79
2022/11/05 11:00:15;;;;;;;8.25;3.80;;;;;;;;;;5038344;28;20854;-79
2022/11/05 11:02:50;;;;;;;7.72;3.80;;;;;;;;;;5038246;28;20053;-78
2022/11/05 11:05:25;;;;;;;14.20;4.80;;;;;;;;;;5039391;28;20531;-79
2022/11/05 11:07:57;;;;;;;7.50;3.83;;;;;;;;;;5058191;28;20048;-78
2022/11/05 11:10:24;;;;;;;6.88;3.20;;;;;;;;;;5040977;28;20045;-79
2022/11/05 11:12:54;;;;;;;8.80;3.30;;;;;;;;;;5059182;28;20072;-78
2022/11/05 11:15:20;;;;;;;11.15;3.50;;;;;;;;;;5039993;28;20502;-78
2022/11/05 11:17:47;;;;;;;8.98;3.67;;;;;;;;;;5032318;28;20192;-78
2022/11/05 11:20:15;;;;;;;5.03;3.45;;;;;;;;;;5057994;28;20041;-78
2022/11/05 11:22:42;;;;;;;7.97;4.07;;;;;;;;;;5059213;28;20459;-78
2022/11/05 11:25:27;;;;;;;9.30;5.00;;;;;;;;;;5042423;28;20863;-79
2022/11/05 11:27:54;;;;;;;7.70;4.57;;;;;;;;;;5061247;28;20041;-80
2022/11/05 11:30:20;;;;;;;8.60;3.63;;;;;;;;;;5061793;28;20040;-79
2022/11/05 11:32:47;;;;;;;7.80;3.78;;;;;;;;;;5063406;28;20048;-79
2022/11/05 11:35:23;;;;;;;7.97;3.80;;;;;;;;;;5043718;28;20040;-78
2022/11/05 11:37:53;;;;;;;8.68;3.38;;;;;;;;;;5062719;28;20049;-78
2022/11/05 11:40:19;;;;;;;6.50;2.80;;;;;;;;;;5043929;28;20785;-79
2022/11/05 11:42:46;;;;;;;7.07;3.75;;;;;;;;;;5037599;28;20033;-79
2022/11/05 11:45:31;;;;;;;6.85;2.50;;;;;;;;;;5037074;28;20045;-79
2022/11/05 11:47:57;;;;;;;6.10;2.60;;;;;;;;;;5062497;28;20052;-79
2022/11/05 11:50:40;;;;;;;11.25;2.70;;;;;;;;;;5061986;28;20044;-80
2022/11/05 11:53:17;;;;;;;6.57;2.65;;;;;;;;;;5044467;28;20216;-80
2022/11/05 11:55:55;;;;;;;3.90;2.30;;;;;;;;;;5062435;28;20045;-79
2022/11/05 11:58:36;;;;;;;6.93;3.78;;;;;;;;;;5061427;28;20599;-79
2022/11/05 12:01:11;;;;;;;9.40;2.85;;;;;;;;;;5062541;28;20048;-79
2022/11/05 12:03:37;;;;;;;8.32;2.97;;;;;;;;;;5060458;28;20041;-79
2022/11/05 12:06:08;;;;;;;6.18;3.67;;;;;;;;;;5037376;28;20099;-80
2022/11/05 12:08:50;;;;;;;5.80;1.88;;;;;;;;;;5043493;28;20045;-79
2022/11/05 12:11:31;;;;;;;5.90;2.58;;;;;;;;;;5043697;28;20381;-79
2022/11/05 12:14:03;;;;;;;6.85;2.85;;;;;;;;;;5061205;28;20047;-79
2022/11/05 12:16:29;;;;;;;7.90;2.70;;;;;;;;;;5035897;28;20048;-78
2022/11/05 12:19:04;;;;;;;5.80;1.80;;;;;;;;;;5061027;28;20107;-78
2022/11/05 12:21:33;;;;;;;5.35;3.05;;;;;;;;;;5061687;28;20067;-79
2022/11/05 12:24:13;;;;;;;9.18;3.10;;;;;;;;;;5059658;28;20444;-78
2022/11/05 12:26:39;;;;;;;5.60;3.42;;;;;;;;;;5060619;28;20036;-78
2022/11/05 12:29:25;;;;;;;8.07;3.08;;;;;;;;;;5042529;28;20163;-79
2022/11/05 12:31:51;;;;;;;9.73;4.20;;;;;;;;;;5042671;28;20118;-79
2022/11/05 12:34:39;;;;;;;8.43;2.85;;;;;;;;;;5042872;28;20033;-78
2022/11/05 12:37:05;;;;;;;7.90;2.47;;;;;;;;;;5059785;28;20134;-79
2022/11/05 12:39:35;;;;;;;5.15;1.88;;;;;;;;;;5057322;28;20131;-79
2022/11/05 12:42:05;;;;;;;4.00;2.10;;;;;;;;;;5055082;28;20037;-78
2022/11/05 12:44:57;;;;;;;5.55;2.20;;;;;;;;;;5055572;28;20137;-78
2022/11/05 12:47:42;;;;;;;9.80;2.08;;;;;;;;;;5053752;28;20623;-77
2022/11/05 12:50:30;;;;;;;5.93;2.40;;;;;;;;;;5057222;28;21520;-79
2022/11/05 12:52:56;;;;;;;10.52;2.42;;;;;;;;;;5031270;28;20041;-78
2022/11/05 12:55:24;;;;;;;3.65;1.60;;;;;;;;;;5056637;28;20128;-79
2022/11/05 12:57:57;;;;;;;9.70;2.47;;;;;;;;;;5030704;28;20119;-79
2022/11/05 13:00:23;;;;;;;;;;;;;;;;;;5056508;28;20350;-79
2022/11/05 13:03:18;;;;;;;8.20;2.75;;;;;;;;;;5057926;28;19921;-79
2022/11/05 13:05:47;;;;;;;7.13;2.47;;;;;;;;;;5040543;28;20037;-77
2022/11/05 13:08:20;;;;;;;9.82;2.35;;;;;;;;;;5056464;28;20052;-78
2022/11/05 13:10:59;;;;;;;6.50;2.13;;;;;;;;;;5058752;28;20082;-78
2022/11/05 13:13:37;;;;;;;5.78;3.15;;;;;;;;;;5058192;28;20454;-76
2022/11/05 13:16:05;;;;;;;8.98;2.60;;;;;;;;;;5058823;28;20033;-79
2022/11/05 13:18:38;;;;;;;9.77;2.90;;;;;;;;;;5034121;28;20071;-78
2022/11/05 13:21:05;;;;;;;12.07;2.53;;;;;;;;;;5058496;28;20053;-78
2022/11/05 13:23:41;;;;;;;5.93;2.28;;;;;;;;;;5033800;28;20045;-78
2022/11/05 13:26:27;;;;;;;10.52;2.42;;;;;;;;;;5056340;28;20072;-78
2022/11/05 13:28:53;;;;;;;7.93;3.13;;;;;;;;;;5059026;28;20096;-78
2022/11/05 13:31:21;;;;;;;8.52;3.20;;;;;;;;;;5058644;28;20049;-75
2022/11/05 13:33:49;;;;;;;7.60;2.50;;;;;;;;;;5056456;28;20084;-76
2022/11/05 13:39:13;;;;;;;5.85;3.08;;;;;;;;;;5058974;28;20049;-78
2022/11/05 13:41:45;;;;;;;8.27;3.97;;;;;;;;;;5053058;28;20049;-78
2022/11/05 13:44:11;;;;;;;5.40;2.95;;;;;;;;;;5056571;28;20159;-78
2022/11/05 13:46:53;;;;;;;6.30;2.72;;;;;;;;;;5040882;28;20049;-78
2022/11/05 13:49:22;;;;;;;6.30;2.55;;;;;;;;;;5059072;28;20916;-77
2022/11/05 13:51:51;;;;;;;6.65;3.17;;;;;;;;;;5036013;28;20080;-79
2022/11/05 13:54:27;;;;;;;6.55;3.95;;;;;;;;;;5053556;28;20040;-77
2022/11/05 13:57:05;;;;;;;8.95;3.25;;;;;;;;;;5032054;28;20072;-77
2022/11/05 13:59:31;;;;;;;6.20;3.80;;;;;;;;;;5038879;28;20043;-78
2022/11/05 14:02:02;;;;;;;11.05;3.65;;;;;;;;;;5057693;28;20052;-77
2022/11/05 14:04:32;;;;;;;9.13;3.03;;;;;;;;;;5053320;28;20676;-77
2022/11/05 14:07:24;;;;;;;4.97;3.00;;;;;;;;;;5054758;28;20581;-77
2022/11/05 14:09:50;;;;;;;;;;;;;;;;;;5036383;28;20049;-77
2022/11/05 14:12:21;;;;;;;8.65;3.28;;;;;;;;;;5055099;28;19925;-77
2022/11/05 14:14:51;;;;;;;4.93;2.58;;;;;;;;;;5056615;28;20515;-77
2022/11/05 14:17:44;;;;;;;5.70;3.70;;;;;;;;;;5056344;28;20041;-77
2022/11/05 14:20:23;;;;;;;5.95;2.80;;;;;;;;;;5053447;28;20138;-77
2022/11/05 14:22:49;;;;;;;9.02;2.92;;;;;;;;;;5034253;28;20041;-77
2022/11/05 14:25:18;;;;;;;9.13;2.65;;;;;;;;;;5039934;28;20045;-79
2022/11/05 14:27:46;;;;;;;7.18;3.20;;;;;;;;;;5056778;28;20048;-77
2022/11/05 14:30:30;;;;;;;11.43;2.75;;;;;;;;;;5055631;28;20045;-77
2022/11/05 14:33:04;;;;;;;6.22;2.97;;;;;;;;;;5033703;28;20076;-78
2022/11/05 14:35:35;;;;;;;13.07;4.93;;;;;;;;;;5055785;28;20592;-78
2022/11/05 14:38:02;;;;;;;6.82;3.47;;;;;;;;;;5051654;28;20041;-77
2022/11/05 14:40:31;;;;;;;6.93;3.35;;;;;;;;;;5028801;28;20092;-77
2022/11/05 14:42:58;;;;;;;8.55;3.80;;;;;;;;;;5053817;28;20052;-77
2022/11/05 14:45:29;;;;;;;16.33;5.35;;;;;;;;;;5051516;28;20049;-77
2022/11/05 14:47:59;;;;;;;7.72;3.97;;;;;;;;;;5052373;28;20044;-78
2022/11/05 14:50:29;;;;;;;8.73;4.35;;;;;;;;;;5050129;28;20408;-78
2022/11/05 14:52:57;;;;;;;12.52;3.63;;;;;;;;;;5052254;28;20922;-78
2022/11/05 14:55:33;;;;;;;7.25;3.10;;;;;;;;;;5051488;28;20128;-77
2022/11/05 14:58:01;;;;;;;9.25;3.20;;;;;;;;;;5054923;28;20118;-78
2022/11/05 15:00:31;;;;;;;6.85;4.00;;;;;;;;;;5055322;28;20225;-77
2022/11/05 15:02:57;;;;;;;14.40;3.53;;;;;;;;;;5055450;28;20586;-77
2022/11/05 15:05:48;;;;;;;7.43;3.45;;;;;;;;;;5056909;28;20041;-79
2022/11/05 15:08:28;;;;;;;10.63;3.00;;;;;;;;;;5055985;28;20804;-78
2022/11/05 15:10:57;;;;;;;5.78;3.05;;;;;;;;;;5054381;28;20051;-78
2022/11/05 15:13:48;;;;;;;8.98;4.07;;;;;;;;;;5056917;28;20509;-79
2022/11/05 15:16:19;;;;;;;12.55;4.78;;;;;;;;;;5033794;28;20546;-78
2022/11/05 15:18:46;;;;;;;12.07;3.97;;;;;;;;;;5039264;28;20056;-78
2022/11/05 15:21:16;;;;;;;10.38;4.18;;;;;;;;;;5063761;28;20104;-78
2022/11/05 15:23:43;;;;;;;8.68;3.70;;;;;;;;;;5064855;28;20053;-78
2022/11/05 15:26:09;;;;;;;12.20;4.50;;;;;;;;;;5044260;28;20037;-78
2022/11/05 15:28:37;;;;;;;11.48;4.50;;;;;;;;;;5063073;28;20064;-78
2022/11/05 15:31:05;;;;;;;11.13;3.28;;;;;;;;;;5062440;28;20041;-79
2022/11/05 15:33:32;;;;;;;10.65;4.47;;;;;;;;;;5060921;28;20048;-78
2022/11/05 15:36:17;;;;;;;11.63;4.00;;;;;;;;;;5065083;28;20045;-77
2022/11/05 15:38:43;;;;;;;12.98;4.75;;;;;;;;;;5048748;28;20041;-79